sensor_id;sensor_type;location;lat;lon;timestamp;P1;durP1;ratioP1;P2;durP2;ratioP2
21657;SDS011;10990;48.174;9.782;2023-07-09T00:01:39;5.80;;;3.30;;
21657;SDS011;10990;48.174;9.782;2023-07-09T00:04:07;6.82;;;3.40;;
21657;SDS011;10990;48.174;9.782;2023-07-09T00:06:35;5.20;;;3.25;;
21657;SDS011;10990;48.174;9.782;2023-07-09T00:09:03;5.63;;;3.47;;
21657;SDS011;10990;48.174;9.782;2023-07-09T00:11:31;7.93;;;3.75;;
21657;SDS011;10990;48.174;9.782;2023-07-09T00:13:57;7.13;;;3.45;;
21657;SDS011;10990;48.174;9.782;2023-07-09T00:16:24;6.60;;;3.20;;
21657;SDS011;10990;48.174;9.782;2023-07-09T00:18:51;5.25;;;3.20;;
21657;SDS011;10990;48.174;9.782;2023-07-09T00:21:19;5.95;;;3.50;;
21657;SDS011;10990;48.174;9.782;2023-07-09T00:23:46;6.70;;;3.10;;
21657;SDS011;10990;48.174;9.782;2023-07-09T00:26:16;6.03;;;3.55;;
21657;SDS011;10990;48.174;9.782;2023-07-09T00:28:45;5.47;;;3.38;;
21657;SDS011;10990;48.174;9.782;2023-07-09T00:31:12;6.35;;;3.78;;
21657;SDS011;10990;48.174;9.782;2023-07-09T00:33:41;4.72;;;3.60;;
21657;SDS011;10990;48.174;9.782;2023-07-09T00:36:11;6.18;;;3.40;;
21657;SDS011;10990;48.174;9.782;2023-07-09T00:38:41;5.72;;;3.33;;
21657;SDS011;10990;48.174;9.782;2023-07-09T00:41:15;4.65;;;3.28;;
21657;SDS011;10990;48.174;9.782;2023-07-09T00:43:45;8.35;;;3.60;;
21657;SDS011;10990;48.174;9.782;2023-07-09T00:46:15;6.32;;;3.10;;
21657;SDS011;10990;48.174;9.782;2023-07-09T00:49:04;5.65;;;3.40;;
21657;SDS011;10990;48.174;9.782;2023-07-09T00:51:36;5.68;;;3.20;;
21657;SDS011;10990;48.174;9.782;2023-07-09T00:54:10;5.40;;;3.20;;
21657;SDS011;10990;48.174;9.782;2023-07-09T00:56:42;4.55;;;3.25;;
21657;SDS011;10990;48.174;9.782;2023-07-09T00:59:13;5.63;;;2.90;;
21657;SDS011;10990;48.174;9.782;2023-07-09T01:01:44;4.53;;;3.08;;
21657;SDS011;10990;48.174;9.782;2023-07-09T01:04:15;4.25;;;3.10;;
21657;SDS011;10990;48.174;9.782;2023-07-09T01:06:47;6.30;;;3.22;;
21657;SDS011;10990;48.174;9.782;2023-07-09T01:09:17;4.38;;;3.30;;
21657;SDS011;10990;48.174;9.782;2023-07-09T01:11:45;5.38;;;3.28;;
21657;SDS011;10990;48.174;9.782;2023-07-09T01:14:13;4.18;;;3.15;;
21657;SDS011;10990;48.174;9.782;2023-07-09T01:16:46;6.28;;;3.35;;
21657;SDS011;10990;48.174;9.782;2023-07-09T01:19:22;5.57;;;3.35;;
21657;SDS011;10990;48.174;9.782;2023-07-09T01:21:53;5.95;;;3.35;;
21657;SDS011;10990;48.174;9.782;2023-07-09T01:27:14;6.43;;;3.45;;
21657;SDS011;10990;48.174;9.782;2023-07-09T01:29:43;5.85;;;3.30;;
21657;SDS011;10990;48.174;9.782;2023-07-09T01:32:13;6.28;;;3.88;;
21657;SDS011;10990;48.174;9.782;2023-07-09T01:34:42;7.03;;;3.28;;
21657;SDS011;10990;48.174;9.782;2023-07-09T01:37:10;6.68;;;3.40;;
21657;SDS011;10990;48.174;9.782;2023-07-09T01:39:37;4.30;;;3.20;;
21657;SDS011;10990;48.174;9.782;2023-07-09T01:42:06;4.68;;;3.17;;
21657;SDS011;10990;48.174;9.782;2023-07-09T01:44:34;4.22;;;3.38;;
21657;SDS011;10990;48.174;9.782;2023-07-09T01:47:01;6.50;;;3.25;;
21657;SDS011;10990;48.174;9.782;2023-07-09T01:49:29;4.45;;;3.30;;
21657;SDS011;10990;48.174;9.782;2023-07-09T01:51:57;6.03;;;3.38;;
21657;SDS011;10990;48.174;9.782;2023-07-09T01:54:30;4.38;;;3.13;;
21657;SDS011;10990;48.174;9.782;2023-07-09T01:57:13;4.72;;;3.10;;
21657;SDS011;10990;48.174;9.782;2023-07-09T01:59:41;6.20;;;3.42;;
21657;SDS011;10990;48.174;9.782;2023-07-09T02:02:09;5.68;;;3.45;;
21657;SDS011;10990;48.174;9.782;2023-07-09T02:04:40;5.97;;;3.40;;
21657;SDS011;10990;48.174;9.782;2023-07-09T02:07:08;4.38;;;3.30;;
21657;SDS011;10990;48.174;9.782;2023-07-09T02:09:36;5.28;;;3.30;;
21657;SDS011;10990;48.174;9.782;2023-07-09T02:12:03;5.57;;;3.45;;
21657;SDS011;10990;48.174;9.782;2023-07-09T02:14:31;4.75;;;3.40;;
21657;SDS011;10990;48.174;9.782;2023-07-09T02:16:58;5.13;;;3.35;;
21657;SDS011;10990;48.174;9.782;2023-07-09T02:19:24;4.78;;;3.10;;
21657;SDS011;10990;48.174;9.782;2023-07-09T02:21:51;4.80;;;3.53;;
21657;SDS011;10990;48.174;9.782;2023-07-09T02:24:18;4.88;;;3.30;;
21657;SDS011;10990;48.174;9.782;2023-07-09T02:26:46;3.47;;;3.03;;
21657;SDS011;10990;48.174;9.782;2023-07-09T02:29:12;7.20;;;3.28;;
21657;SDS011;10990;48.174;9.782;2023-07-09T02:31:39;5.70;;;3.40;;
21657;SDS011;10990;48.174;9.782;2023-07-09T02:34:06;4.07;;;3.17;;
21657;SDS011;10990;48.174;9.782;2023-07-09T02:36:33;7.00;;;3.45;;
21657;SDS011;10990;48.174;9.782;2023-07-09T02:38:59;7.63;;;3.53;;
21657;SDS011;10990;48.174;9.782;2023-07-09T02:41:26;5.95;;;3.85;;
21657;SDS011;10990;48.174;9.782;2023-07-09T02:43:55;5.85;;;3.60;;
21657;SDS011;10990;48.174;9.782;2023-07-09T02:46:21;6.05;;;3.85;;
21657;SDS011;10990;48.174;9.782;2023-07-09T02:48:48;6.97;;;3.92;;
21657;SDS011;10990;48.174;9.782;2023-07-09T02:51:15;6.13;;;4.03;;
21657;SDS011;10990;48.174;9.782;2023-07-09T02:53:42;5.63;;;3.80;;
21657;SDS011;10990;48.174;9.782;2023-07-09T02:56:08;6.20;;;3.53;;
21657;SDS011;10990;48.174;9.782;2023-07-09T02:58:35;6.30;;;3.70;;
21657;SDS011;10990;48.174;9.782;2023-07-09T03:01:03;5.80;;;3.88;;
21657;SDS011;10990;48.174;9.782;2023-07-09T03:03:30;4.47;;;3.33;;
21657;SDS011;10990;48.174;9.782;2023-07-09T03:05:57;4.50;;;3.30;;
21657;SDS011;10990;48.174;9.782;2023-07-09T03:08:24;6.70;;;3.65;;
21657;SDS011;10990;48.174;9.782;2023-07-09T03:10:50;8.32;;;3.60;;
21657;SDS011;10990;48.174;9.782;2023-07-09T03:13:17;4.80;;;3.08;;
21657;SDS011;10990;48.174;9.782;2023-07-09T03:15:53;5.32;;;3.42;;
21657;SDS011;10990;48.174;9.782;2023-07-09T03:18:21;4.00;;;3.17;;
21657;SDS011;10990;48.174;9.782;2023-07-09T03:20:48;4.95;;;3.42;;
21657;SDS011;10990;48.174;9.782;2023-07-09T03:23:15;5.85;;;3.33;;
21657;SDS011;10990;48.174;9.782;2023-07-09T03:25:42;5.68;;;3.30;;
21657;SDS011;10990;48.174;9.782;2023-07-09T03:28:09;4.75;;;3.60;;
21657;SDS011;10990;48.174;9.782;2023-07-09T03:30:39;4.88;;;3.15;;
21657;SDS011;10990;48.174;9.782;2023-07-09T03:33:06;6.10;;;3.50;;
21657;SDS011;10990;48.174;9.782;2023-07-09T03:35:34;4.85;;;3.08;;
21657;SDS011;10990;48.174;9.782;2023-07-09T03:38:01;6.88;;;3.47;;
21657;SDS011;10990;48.174;9.782;2023-07-09T03:40:28;5.07;;;3.30;;
21657;SDS011;10990;48.174;9.782;2023-07-09T03:42:54;6.38;;;3.35;;
21657;SDS011;10990;48.174;9.782;2023-07-09T03:45:21;5.57;;;3.60;;
21657;SDS011;10990;48.174;9.782;2023-07-09T03:47:48;7.45;;;4.13;;
21657;SDS011;10990;48.174;9.782;2023-07-09T03:50:15;6.13;;;3.60;;
21657;SDS011;10990;48.174;9.782;2023-07-09T03:52:43;6.28;;;3.72;;
21657;SDS011;10990;48.174;9.782;2023-07-09T03:55:10;6.18;;;3.35;;
21657;SDS011;10990;48.174;9.782;2023-07-09T03:57:38;5.85;;;3.33;;
21657;SDS011;10990;48.174;9.782;2023-07-09T04:00:05;5.57;;;3.53;;
21657;SDS011;10990;48.174;9.782;2023-07-09T04:02:40;4.88;;;3.20;;
21657;SDS011;10990;48.174;9.782;2023-07-09T04:05:08;5.32;;;3.20;;
21657;SDS011;10990;48.174;9.782;2023-07-09T04:07:36;4.63;;;3.17;;
21657;SDS011;10990;48.174;9.782;2023-07-09T04:10:05;5.65;;;3.42;;
21657;SDS011;10990;48.174;9.782;2023-07-09T04:12:32;5.47;;;3.55;;
21657;SDS011;10990;48.174;9.782;2023-07-09T04:15:00;6.03;;;3.42;;
21657;SDS011;10990;48.174;9.782;2023-07-09T04:17:26;6.30;;;3.50;;
21657;SDS011;10990;48.174;9.782;2023-07-09T04:19:53;4.57;;;3.30;;
21657;SDS011;10990;48.174;9.782;2023-07-09T04:22:20;5.95;;;3.40;;
21657;SDS011;10990;48.174;9.782;2023-07-09T04:24:47;6.15;;;3.47;;
21657;SDS011;10990;48.174;9.782;2023-07-09T04:27:16;4.57;;;3.30;;
21657;SDS011;10990;48.174;9.782;2023-07-09T04:29:42;6.50;;;3.70;;
21657;SDS011;10990;48.174;9.782;2023-07-09T04:32:11;5.68;;;3.10;;
21657;SDS011;10990;48.174;9.782;2023-07-09T04:34:39;7.75;;;3.35;;
21657;SDS011;10990;48.174;9.782;2023-07-09T04:37:07;5.85;;;3.50;;
21657;SDS011;10990;48.174;9.782;2023-07-09T04:39:36;5.82;;;3.40;;
21657;SDS011;10990;48.174;9.782;2023-07-09T04:42:03;6.65;;;3.60;;
21657;SDS011;10990;48.174;9.782;2023-07-09T04:44:33;7.18;;;3.33;;
21657;SDS011;10990;48.174;9.782;2023-07-09T04:46:59;6.57;;;3.72;;
21657;SDS011;10990;48.174;9.782;2023-07-09T04:49:26;5.65;;;3.42;;
21657;SDS011;10990;48.174;9.782;2023-07-09T04:51:53;6.30;;;3.25;;
21657;SDS011;10990;48.174;9.782;2023-07-09T04:54:21;4.65;;;3.28;;
21657;SDS011;10990;48.174;9.782;2023-07-09T04:56:48;5.93;;;3.28;;
21657;SDS011;10990;48.174;9.782;2023-07-09T04:59:15;6.38;;;3.97;;
21657;SDS011;10990;48.174;9.782;2023-07-09T05:01:43;6.97;;;3.60;;
21657;SDS011;10990;48.174;9.782;2023-07-09T05:04:10;5.10;;;3.67;;
21657;SDS011;10990;48.174;9.782;2023-07-09T05:06:36;6.78;;;4.25;;
21657;SDS011;10990;48.174;9.782;2023-07-09T05:09:03;4.82;;;3.50;;
21657;SDS011;10990;48.174;9.782;2023-07-09T05:11:31;6.30;;;3.92;;
21657;SDS011;10990;48.174;9.782;2023-07-09T05:13:58;7.68;;;4.30;;
21657;SDS011;10990;48.174;9.782;2023-07-09T05:16:25;7.32;;;3.90;;
21657;SDS011;10990;48.174;9.782;2023-07-09T05:18:53;7.00;;;3.90;;
21657;SDS011;10990;48.174;9.782;2023-07-09T05:21:19;7.15;;;3.85;;
21657;SDS011;10990;48.174;9.782;2023-07-09T05:23:46;7.40;;;4.10;;
21657;SDS011;10990;48.174;9.782;2023-07-09T05:26:13;6.47;;;4.20;;
21657;SDS011;10990;48.174;9.782;2023-07-09T05:28:39;6.03;;;3.72;;
21657;SDS011;10990;48.174;9.782;2023-07-09T05:31:06;5.50;;;3.88;;
21657;SDS011;10990;48.174;9.782;2023-07-09T05:33:33;7.20;;;4.07;;
21657;SDS011;10990;48.174;9.782;2023-07-09T05:36:01;9.48;;;4.32;;
21657;SDS011;10990;48.174;9.782;2023-07-09T05:38:28;6.82;;;4.38;;
21657;SDS011;10990;48.174;9.782;2023-07-09T05:40:59;8.20;;;4.70;;
21657;SDS011;10990;48.174;9.782;2023-07-09T05:43:26;8.25;;;4.60;;
21657;SDS011;10990;48.174;9.782;2023-07-09T05:45:52;7.57;;;4.07;;
21657;SDS011;10990;48.174;9.782;2023-07-09T05:48:19;6.30;;;4.35;;
21657;SDS011;10990;48.174;9.782;2023-07-09T05:50:47;6.78;;;4.18;;
21657;SDS011;10990;48.174;9.782;2023-07-09T05:53:16;5.50;;;3.85;;
21657;SDS011;10990;48.174;9.782;2023-07-09T05:55:42;6.93;;;4.30;;
21657;SDS011;10990;48.174;9.782;2023-07-09T05:58:09;6.35;;;4.18;;
21657;SDS011;10990;48.174;9.782;2023-07-09T06:00:36;7.82;;;4.55;;
21657;SDS011;10990;48.174;9.782;2023-07-09T06:03:02;8.40;;;5.00;;
21657;SDS011;10990;48.174;9.782;2023-07-09T06:05:32;6.15;;;4.65;;
21657;SDS011;10990;48.174;9.782;2023-07-09T06:07:59;8.20;;;5.25;;
21657;SDS011;10990;48.174;9.782;2023-07-09T06:10:27;5.82;;;4.35;;
21657;SDS011;10990;48.174;9.782;2023-07-09T06:12:55;7.10;;;5.10;;
21657;SDS011;10990;48.174;9.782;2023-07-09T06:15:24;6.03;;;4.43;;
21657;SDS011;10990;48.174;9.782;2023-07-09T06:17:50;7.07;;;4.55;;
21657;SDS011;10990;48.174;9.782;2023-07-09T06:20:17;6.00;;;4.63;;
21657;SDS011;10990;48.174;9.782;2023-07-09T06:22:44;6.05;;;4.30;;
21657;SDS011;10990;48.174;9.782;2023-07-09T06:25:12;6.50;;;4.35;;
21657;SDS011;10990;48.174;9.782;2023-07-09T06:27:40;7.30;;;4.85;;
21657;SDS011;10990;48.174;9.782;2023-07-09T06:30:07;6.63;;;5.05;;
21657;SDS011;10990;48.174;9.782;2023-07-09T06:32:34;5.30;;;4.50;;
21657;SDS011;10990;48.174;9.782;2023-07-09T06:35:01;6.47;;;4.30;;
21657;SDS011;10990;48.174;9.782;2023-07-09T06:37:29;7.97;;;5.05;;
21657;SDS011;10990;48.174;9.782;2023-07-09T06:39:55;7.13;;;4.82;;
21657;SDS011;10990;48.174;9.782;2023-07-09T06:42:22;6.55;;;4.60;;
21657;SDS011;10990;48.174;9.782;2023-07-09T06:45:01;5.95;;;4.70;;
21657;SDS011;10990;48.174;9.782;2023-07-09T06:47:28;7.53;;;4.68;;
21657;SDS011;10990;48.174;9.782;2023-07-09T06:49:55;7.65;;;4.60;;
21657;SDS011;10990;48.174;9.782;2023-07-09T06:52:22;5.13;;;4.13;;
21657;SDS011;10990;48.174;9.782;2023-07-09T06:54:48;6.00;;;3.80;;
21657;SDS011;10990;48.174;9.782;2023-07-09T06:57:15;5.40;;;3.95;;
21657;SDS011;10990;48.174;9.782;2023-07-09T06:59:42;6.20;;;3.63;;
21657;SDS011;10990;48.174;9.782;2023-07-09T07:02:10;4.70;;;3.83;;
21657;SDS011;10990;48.174;9.782;2023-07-09T07:04:36;6.13;;;4.30;;
21657;SDS011;10990;48.174;9.782;2023-07-09T07:07:03;5.45;;;3.53;;
21657;SDS011;10990;48.174;9.782;2023-07-09T07:09:30;5.57;;;4.00;;
21657;SDS011;10990;48.174;9.782;2023-07-09T07:11:56;6.07;;;4.40;;
21657;SDS011;10990;48.174;9.782;2023-07-09T07:14:23;5.68;;;3.50;;
21657;SDS011;10990;48.174;9.782;2023-07-09T07:16:50;6.22;;;3.97;;
21657;SDS011;10990;48.174;9.782;2023-07-09T07:19:18;5.55;;;3.70;;
21657;SDS011;10990;48.174;9.782;2023-07-09T07:21:45;5.38;;;3.70;;
21657;SDS011;10990;48.174;9.782;2023-07-09T07:24:12;5.60;;;4.05;;
21657;SDS011;10990;48.174;9.782;2023-07-09T07:26:38;5.88;;;3.88;;
21657;SDS011;10990;48.174;9.782;2023-07-09T07:29:05;4.10;;;3.70;;
21657;SDS011;10990;48.174;9.782;2023-07-09T07:31:32;3.92;;;3.50;;
21657;SDS011;10990;48.174;9.782;2023-07-09T07:33:58;12.38;;;4.63;;
21657;SDS011;10990;48.174;9.782;2023-07-09T07:36:26;6.38;;;3.90;;
21657;SDS011;10990;48.174;9.782;2023-07-09T07:38:53;4.68;;;3.45;;
21657;SDS011;10990;48.174;9.782;2023-07-09T07:41:20;6.07;;;3.50;;
21657;SDS011;10990;48.174;9.782;2023-07-09T07:43:46;3.95;;;3.50;;
21657;SDS011;10990;48.174;9.782;2023-07-09T07:46:13;6.15;;;3.88;;
21657;SDS011;10990;48.174;9.782;2023-07-09T07:48:40;4.18;;;3.70;;
21657;SDS011;10990;48.174;9.782;2023-07-09T07:51:06;6.15;;;4.13;;
21657;SDS011;10990;48.174;9.782;2023-07-09T07:53:34;4.97;;;3.83;;
21657;SDS011;10990;48.174;9.782;2023-07-09T07:56:01;4.35;;;3.60;;
21657;SDS011;10990;48.174;9.782;2023-07-09T07:58:28;4.70;;;4.07;;
21657;SDS011;10990;48.174;9.782;2023-07-09T08:00:55;4.25;;;3.83;;
21657;SDS011;10990;48.174;9.782;2023-07-09T08:03:22;5.93;;;4.22;;
21657;SDS011;10990;48.174;9.782;2023-07-09T08:05:49;4.95;;;4.13;;
21657;SDS011;10990;48.174;9.782;2023-07-09T08:08:16;4.55;;;3.90;;
21657;SDS011;10990;48.174;9.782;2023-07-09T08:10:45;6.97;;;4.30;;
21657;SDS011;10990;48.174;9.782;2023-07-09T08:13:11;6.10;;;3.63;;
21657;SDS011;10990;48.174;9.782;2023-07-09T08:15:38;5.18;;;3.83;;
21657;SDS011;10990;48.174;9.782;2023-07-09T08:18:05;4.18;;;3.63;;
21657;SDS011;10990;48.174;9.782;2023-07-09T08:20:31;4.03;;;3.47;;
21657;SDS011;10990;48.174;9.782;2023-07-09T08:22:59;5.60;;;4.10;;
21657;SDS011;10990;48.174;9.782;2023-07-09T08:25:26;4.43;;;3.75;;
21657;SDS011;10990;48.174;9.782;2023-07-09T08:27:54;7.35;;;4.10;;
21657;SDS011;10990;48.174;9.782;2023-07-09T08:30:21;3.92;;;3.53;;
21657;SDS011;10990;48.174;9.782;2023-07-09T08:32:48;5.68;;;3.78;;
21657;SDS011;10990;48.174;9.782;2023-07-09T08:35:14;7.13;;;4.22;;
21657;SDS011;10990;48.174;9.782;2023-07-09T08:37:41;4.57;;;3.83;;
21657;SDS011;10990;48.174;9.782;2023-07-09T08:40:10;4.57;;;3.90;;
21657;SDS011;10990;48.174;9.782;2023-07-09T08:42:40;5.93;;;3.80;;
21657;SDS011;10990;48.174;9.782;2023-07-09T08:45:18;5.60;;;4.10;;
21657;SDS011;10990;48.174;9.782;2023-07-09T08:47:58;6.93;;;4.13;;
21657;SDS011;10990;48.174;9.782;2023-07-09T08:50:31;3.95;;;3.65;;
21657;SDS011;10990;48.174;9.782;2023-07-09T08:53:02;4.45;;;3.70;;
21657;SDS011;10990;48.174;9.782;2023-07-09T08:55:31;5.00;;;3.30;;
21657;SDS011;10990;48.174;9.782;2023-07-09T08:58:09;4.22;;;3.50;;
21657;SDS011;10990;48.174;9.782;2023-07-09T09:00:43;3.90;;;3.50;;
21657;SDS011;10990;48.174;9.782;2023-07-09T09:03:21;5.50;;;3.60;;
21657;SDS011;10990;48.174;9.782;2023-07-09T09:05:56;5.00;;;3.45;;
21657;SDS011;10990;48.174;9.782;2023-07-09T09:08:26;4.38;;;3.78;;
21657;SDS011;10990;48.174;9.782;2023-07-09T09:11:09;5.15;;;3.45;;
21657;SDS011;10990;48.174;9.782;2023-07-09T09:13:45;4.40;;;3.70;;
21657;SDS011;10990;48.174;9.782;2023-07-09T09:16:20;5.80;;;3.65;;
21657;SDS011;10990;48.174;9.782;2023-07-09T09:18:50;4.28;;;3.20;;
21657;SDS011;10990;48.174;9.782;2023-07-09T09:21:22;4.90;;;3.30;;
21657;SDS011;10990;48.174;9.782;2023-07-09T09:23:54;5.07;;;3.28;;
21657;SDS011;10990;48.174;9.782;2023-07-09T09:26:26;3.95;;;3.40;;
21657;SDS011;10990;48.174;9.782;2023-07-09T09:28:56;3.80;;;3.15;;
21657;SDS011;10990;48.174;9.782;2023-07-09T09:31:25;6.88;;;3.40;;
21657;SDS011;10990;48.174;9.782;2023-07-09T09:33:53;5.97;;;3.85;;
21657;SDS011;10990;48.174;9.782;2023-07-09T09:36:20;5.90;;;3.33;;
21657;SDS011;10990;48.174;9.782;2023-07-09T09:38:48;6.05;;;3.60;;
21657;SDS011;10990;48.174;9.782;2023-07-09T09:41:16;6.18;;;3.33;;
21657;SDS011;10990;48.174;9.782;2023-07-09T09:43:44;5.28;;;3.40;;
21657;SDS011;10990;48.174;9.782;2023-07-09T09:46:16;5.28;;;3.83;;
21657;SDS011;10990;48.174;9.782;2023-07-09T09:48:46;4.55;;;3.72;;
21657;SDS011;10990;48.174;9.782;2023-07-09T09:51:14;6.43;;;3.60;;
21657;SDS011;10990;48.174;9.782;2023-07-09T09:53:45;6.80;;;3.60;;
21657;SDS011;10990;48.174;9.782;2023-07-09T09:56:17;5.10;;;3.58;;
21657;SDS011;10990;48.174;9.782;2023-07-09T09:58:45;6.95;;;3.88;;
21657;SDS011;10990;48.174;9.782;2023-07-09T10:01:13;3.92;;;3.30;;
21657;SDS011;10990;48.174;9.782;2023-07-09T10:03:42;5.10;;;3.65;;
21657;SDS011;10990;48.174;9.782;2023-07-09T10:06:12;5.43;;;3.70;;
21657;SDS011;10990;48.174;9.782;2023-07-09T10:08:46;3.78;;;3.28;;
21657;SDS011;10990;48.174;9.782;2023-07-09T10:11:27;6.38;;;3.70;;
21657;SDS011;10990;48.174;9.782;2023-07-09T10:14:00;6.07;;;3.58;;
21657;SDS011;10990;48.174;9.782;2023-07-09T10:16:32;5.57;;;3.63;;
21657;SDS011;10990;48.174;9.782;2023-07-09T10:19:07;3.42;;;3.13;;
21657;SDS011;10990;48.174;9.782;2023-07-09T10:21:43;3.80;;;3.08;;
21657;SDS011;10990;48.174;9.782;2023-07-09T10:24:18;5.68;;;3.85;;
21657;SDS011;10990;48.174;9.782;2023-07-09T10:26:56;7.45;;;3.65;;
21657;SDS011;10990;48.174;9.782;2023-07-09T10:29:36;6.68;;;3.70;;
21657;SDS011;10990;48.174;9.782;2023-07-09T10:32:20;4.30;;;3.50;;
21657;SDS011;10990;48.174;9.782;2023-07-09T10:35:00;4.68;;;3.95;;
21657;SDS011;10990;48.174;9.782;2023-07-09T10:37:43;6.15;;;3.88;;
21657;SDS011;10990;48.174;9.782;2023-07-09T10:40:23;5.03;;;3.58;;
21657;SDS011;10990;48.174;9.782;2023-07-09T10:42:55;4.68;;;3.30;;
21657;SDS011;10990;48.174;9.782;2023-07-09T10:45:27;3.70;;;2.97;;
21657;SDS011;10990;48.174;9.782;2023-07-09T10:47:58;5.72;;;3.35;;
21657;SDS011;10990;48.174;9.782;2023-07-09T10:50:29;6.88;;;3.85;;
21657;SDS011;10990;48.174;9.782;2023-07-09T10:53:04;5.38;;;3.88;;
21657;SDS011;10990;48.174;9.782;2023-07-09T10:55:41;6.60;;;3.83;;
21657;SDS011;10990;48.174;9.782;2023-07-09T10:58:18;6.15;;;3.92;;
21657;SDS011;10990;48.174;9.782;2023-07-09T11:00:51;4.90;;;3.90;;
21657;SDS011;10990;48.174;9.782;2023-07-09T11:03:19;4.18;;;3.55;;
21657;SDS011;10990;48.174;9.782;2023-07-09T11:05:50;7.20;;;3.90;;
21657;SDS011;10990;48.174;9.782;2023-07-09T11:08:19;4.32;;;3.45;;
21657;SDS011;10990;48.174;9.782;2023-07-09T11:10:50;5.25;;;3.95;;
21657;SDS011;10990;48.174;9.782;2023-07-09T11:13:21;8.90;;;3.97;;
21657;SDS011;10990;48.174;9.782;2023-07-09T11:15:53;4.75;;;3.65;;
21657;SDS011;10990;48.174;9.782;2023-07-09T11:18:23;5.32;;;3.92;;
21657;SDS011;10990;48.174;9.782;2023-07-09T11:20:55;5.50;;;4.22;;
21657;SDS011;10990;48.174;9.782;2023-07-09T11:23:36;6.00;;;4.15;;
21657;SDS011;10990;48.174;9.782;2023-07-09T11:26:10;6.10;;;3.78;;
21657;SDS011;10990;48.174;9.782;2023-07-09T11:28:39;6.55;;;4.22;;
21657;SDS011;10990;48.174;9.782;2023-07-09T11:31:07;6.13;;;3.85;;
21657;SDS011;10990;48.174;9.782;2023-07-09T11:33:45;4.40;;;4.00;;
21657;SDS011;10990;48.174;9.782;2023-07-09T11:36:14;5.10;;;3.47;;
21657;SDS011;10990;48.174;9.782;2023-07-09T11:38:53;5.15;;;3.85;;
21657;SDS011;10990;48.174;9.782;2023-07-09T11:41:28;5.57;;;3.90;;
21657;SDS011;10990;48.174;9.782;2023-07-09T11:44:05;5.35;;;4.15;;
21657;SDS011;10990;48.174;9.782;2023-07-09T11:46:40;4.68;;;3.95;;
21657;SDS011;10990;48.174;9.782;2023-07-09T11:49:17;5.00;;;3.70;;
21657;SDS011;10990;48.174;9.782;2023-07-09T11:51:48;6.53;;;4.10;;
21657;SDS011;10990;48.174;9.782;2023-07-09T11:54:20;6.88;;;3.97;;
21657;SDS011;10990;48.174;9.782;2023-07-09T11:56:54;6.22;;;4.22;;
21657;SDS011;10990;48.174;9.782;2023-07-09T11:59:22;7.38;;;4.18;;
21657;SDS011;10990;48.174;9.782;2023-07-09T12:01:49;6.80;;;4.05;;
21657;SDS011;10990;48.174;9.782;2023-07-09T12:04:20;6.95;;;3.97;;
21657;SDS011;10990;48.174;9.782;2023-07-09T12:06:48;5.13;;;4.00;;
21657;SDS011;10990;48.174;9.782;2023-07-09T12:09:18;4.63;;;3.95;;
21657;SDS011;10990;48.174;9.782;2023-07-09T12:11:48;6.45;;;4.13;;
21657;SDS011;10990;48.174;9.782;2023-07-09T12:14:16;7.78;;;4.18;;
21657;SDS011;10990;48.174;9.782;2023-07-09T12:16:44;6.40;;;3.97;;
21657;SDS011;10990;48.174;9.782;2023-07-09T12:19:13;5.15;;;3.80;;
21657;SDS011;10990;48.174;9.782;2023-07-09T12:21:43;7.63;;;3.88;;
21657;SDS011;10990;48.174;9.782;2023-07-09T12:24:15;5.75;;;4.18;;
21657;SDS011;10990;48.174;9.782;2023-07-09T12:26:48;8.05;;;4.35;;
21657;SDS011;10990;48.174;9.782;2023-07-09T12:29:16;6.70;;;3.95;;
21657;SDS011;10990;48.174;9.782;2023-07-09T12:31:42;7.20;;;3.90;;
21657;SDS011;10990;48.174;9.782;2023-07-09T12:34:10;7.20;;;4.00;;
21657;SDS011;10990;48.174;9.782;2023-07-09T12:36:38;7.95;;;3.80;;
21657;SDS011;10990;48.174;9.782;2023-07-09T12:39:09;5.43;;;3.75;;
21657;SDS011;10990;48.174;9.782;2023-07-09T12:41:39;7.40;;;4.10;;
21657;SDS011;10990;48.174;9.782;2023-07-09T12:44:13;9.98;;;4.47;;
21657;SDS011;10990;48.174;9.782;2023-07-09T12:46:42;6.72;;;3.80;;
21657;SDS011;10990;48.174;9.782;2023-07-09T12:49:12;7.03;;;3.85;;
21657;SDS011;10990;48.174;9.782;2023-07-09T12:51:48;8.30;;;4.20;;
21657;SDS011;10990;48.174;9.782;2023-07-09T12:54:16;5.57;;;3.70;;
21657;SDS011;10990;48.174;9.782;2023-07-09T12:56:45;6.18;;;3.63;;
21657;SDS011;10990;48.174;9.782;2023-07-09T12:59:16;6.47;;;4.07;;
21657;SDS011;10990;48.174;9.782;2023-07-09T13:01:48;8.40;;;4.28;;
21657;SDS011;10990;48.174;9.782;2023-07-09T13:04:16;5.32;;;3.72;;
21657;SDS011;10990;48.174;9.782;2023-07-09T13:06:43;5.82;;;3.80;;
21657;SDS011;10990;48.174;9.782;2023-07-09T13:09:13;6.50;;;4.53;;
21657;SDS011;10990;48.174;9.782;2023-07-09T13:11:45;5.22;;;3.90;;
21657;SDS011;10990;48.174;9.782;2023-07-09T13:14:18;6.45;;;4.00;;
21657;SDS011;10990;48.174;9.782;2023-07-09T13:16:47;5.18;;;3.70;;
21657;SDS011;10990;48.174;9.782;2023-07-09T13:19:14;7.07;;;4.03;;
21657;SDS011;10990;48.174;9.782;2023-07-09T13:21:40;5.63;;;4.28;;
21657;SDS011;10990;48.174;9.782;2023-07-09T13:24:12;5.38;;;3.75;;
21657;SDS011;10990;48.174;9.782;2023-07-09T13:26:41;5.13;;;3.90;;
21657;SDS011;10990;48.174;9.782;2023-07-09T13:29:12;6.30;;;4.55;;
21657;SDS011;10990;48.174;9.782;2023-07-09T13:31:42;7.25;;;4.13;;
21657;SDS011;10990;48.174;9.782;2023-07-09T13:36:45;7.47;;;4.03;;
21657;SDS011;10990;48.174;9.782;2023-07-09T13:39:12;7.65;;;4.20;;
21657;SDS011;10990;48.174;9.782;2023-07-09T13:41:39;11.40;;;4.70;;
21657;SDS011;10990;48.174;9.782;2023-07-09T13:44:08;5.80;;;4.03;;
21657;SDS011;10990;48.174;9.782;2023-07-09T13:46:38;6.57;;;4.00;;
21657;SDS011;10990;48.174;9.782;2023-07-09T13:49:07;7.13;;;4.10;;
21657;SDS011;10990;48.174;9.782;2023-07-09T13:51:35;6.55;;;4.18;;
21657;SDS011;10990;48.174;9.782;2023-07-09T13:54:06;9.02;;;4.40;;
21657;SDS011;10990;48.174;9.782;2023-07-09T13:56:40;7.30;;;4.28;;
21657;SDS011;10990;48.174;9.782;2023-07-09T13:59:10;7.97;;;4.43;;
21657;SDS011;10990;48.174;9.782;2023-07-09T14:01:39;6.88;;;4.03;;
21657;SDS011;10990;48.174;9.782;2023-07-09T14:04:10;6.25;;;4.13;;
21657;SDS011;10990;48.174;9.782;2023-07-09T14:06:38;7.82;;;4.22;;
21657;SDS011;10990;48.174;9.782;2023-07-09T14:09:05;7.85;;;4.45;;
21657;SDS011;10990;48.174;9.782;2023-07-09T14:11:33;8.35;;;4.15;;
21657;SDS011;10990;48.174;9.782;2023-07-09T14:14:01;7.80;;;4.00;;
21657;SDS011;10990;48.174;9.782;2023-07-09T14:16:28;9.55;;;4.45;;
21657;SDS011;10990;48.174;9.782;2023-07-09T14:18:54;8.25;;;4.28;;
21657;SDS011;10990;48.174;9.782;2023-07-09T14:21:23;7.85;;;4.28;;
21657;SDS011;10990;48.174;9.782;2023-07-09T14:23:52;8.23;;;4.15;;
21657;SDS011;10990;48.174;9.782;2023-07-09T14:26:19;8.40;;;4.63;;
21657;SDS011;10990;48.174;9.782;2023-07-09T14:28:46;7.45;;;4.35;;
21657;SDS011;10990;48.174;9.782;2023-07-09T14:31:17;5.25;;;3.70;;
21657;SDS011;10990;48.174;9.782;2023-07-09T14:33:48;6.63;;;4.43;;
21657;SDS011;10990;48.174;9.782;2023-07-09T14:36:14;7.95;;;3.92;;
21657;SDS011;10990;48.174;9.782;2023-07-09T14:38:42;7.25;;;3.92;;
21657;SDS011;10990;48.174;9.782;2023-07-09T14:41:16;10.18;;;4.43;;
21657;SDS011;10990;48.174;9.782;2023-07-09T14:43:47;6.97;;;3.72;;
21657;SDS011;10990;48.174;9.782;2023-07-09T14:46:14;6.50;;;3.92;;
21657;SDS011;10990;48.174;9.782;2023-07-09T14:48:41;6.28;;;3.88;;
21657;SDS011;10990;48.174;9.782;2023-07-09T14:51:11;9.05;;;4.40;;
21657;SDS011;10990;48.174;9.782;2023-07-09T14:53:40;6.57;;;4.30;;
21657;SDS011;10990;48.174;9.782;2023-07-09T14:56:08;5.13;;;3.60;;
21657;SDS011;10990;48.174;9.782;2023-07-09T14:58:37;5.72;;;3.58;;
21657;SDS011;10990;48.174;9.782;2023-07-09T15:01:04;7.43;;;3.63;;
21657;SDS011;10990;48.174;9.782;2023-07-09T15:03:31;5.43;;;3.72;;
21657;SDS011;10990;48.174;9.782;2023-07-09T15:05:57;6.80;;;4.22;;